Time;durP1;ratioP1;P1;durP2;ratioP2;P2;SDS_P1;SDS_P2;PMS_P1;PMS_P2;Temp;Humidity;BMP_temperature;BMP_pressure;BME280_temperature;BME280_humidity;BME280_pressure;Samples;Min_cycle;Max_cycle;Signal;HPM_P1;HPM_P2
2021/10/29 00:01:33;;;;;;;4.77;2.93;;;22.50;54.50;;;;;;6174493;23;20431;-79
2021/10/29 00:03:59;;;;;;;3.77;2.80;;;22.50;54.60;;;;;;6149757;23;20376;-78
2021/10/29 00:06:25;;;;;;;3.13;2.23;;;22.40;54.50;;;;;;6149062;23;20387;-79
2021/10/29 00:08:53;;;;;;;3.10;2.43;;;22.50;54.50;;;;;;6149412;23;20384;-78
2021/10/29 00:11:19;;;;;;;4.07;2.63;;;22.40;54.50;;;;;;6150406;23;20389;-78
2021/10/29 00:13:45;;;;;;;3.57;2.20;;;22.40;54.40;;;;;;6209888;23;20416;-79
2021/10/29 00:16:11;;;;;;;2.83;2.30;;;22.50;54.60;;;;;;6210102;23;20179;-79
2021/10/29 00:18:38;;;;;;;3.63;2.13;;;22.40;54.40;;;;;;6209684;23;20389;-78
2021/10/29 00:21:06;;;;;;;2.77;2.37;;;22.50;54.50;;;;;;6184624;23;20485;-79
2021/10/29 00:23:33;;;;;;;5.50;3.10;;;22.40;54.40;;;;;;6209813;23;20389;-79
2021/10/29 00:25:59;;;;;;;3.90;2.73;;;22.40;54.50;;;;;;6210143;23;20382;-79
2021/10/29 00:28:28;;;;;;;2.83;2.03;;;22.40;54.40;;;;;;6235911;23;20404;-80
2021/10/29 00:30:56;;;;;;;3.70;2.40;;;22.40;54.40;;;;;;6237039;23;20434;-80
2021/10/29 00:33:28;;;;;;;4.33;2.43;;;22.40;54.40;;;;;;6210235;23;20383;-79
2021/10/29 00:35:54;;;;;;;3.33;2.77;;;22.40;54.50;;;;;;6237455;23;20412;-78
2021/10/29 00:38:22;;;;;;;3.07;2.13;;;22.40;54.50;;;;;;6211902;23;20404;-79
2021/10/29 00:40:50;;;;;;;3.50;2.20;;;22.40;54.50;;;;;;6237789;23;20642;-80
2021/10/29 00:43:16;;;;;;;3.17;2.40;;;22.40;54.50;;;;;;6212168;23;20386;-80
2021/10/29 00:45:42;;;;;;;3.60;2.43;;;22.40;54.50;;;;;;6238465;23;20424;-80
2021/10/29 00:48:12;;;;;;;3.53;2.47;;;22.40;54.50;;;;;;6237547;23;20374;-80
2021/10/29 00:50:39;;;;;;;2.70;2.20;;;22.40;54.50;;;;;;6211148;23;20375;-80
2021/10/29 00:53:10;;;;;;;3.20;2.70;;;22.40;54.50;;;;;;6186093;23;20390;-80
2021/10/29 00:55:39;;;;;;;3.20;2.30;;;22.40;54.50;;;;;;6236973;23;20381;-79
2021/10/29 00:58:05;;;;;;;3.47;2.50;;;22.40;54.50;;;;;;6236640;23;20469;-80
2021/10/29 01:00:35;;;;;;;3.10;2.37;;;22.40;54.50;;;;;;6209568;23;20378;-79
2021/10/29 01:03:05;;;;;;;4.53;2.33;;;22.40;54.50;;;;;;6209366;23;20374;-79
2021/10/29 01:05:33;;;;;;;3.50;2.30;;;22.40;54.50;;;;;;6209432;23;20457;-80
2021/10/29 01:07:59;;;;;;;2.70;2.13;;;22.40;54.50;;;;;;6236000;23;20374;-79
2021/10/29 01:10:34;;;;;;;3.10;2.70;;;22.40;54.40;;;;;;6209166;23;20446;-78
2021/10/29 01:13:01;;;;;;;2.87;2.13;;;22.40;54.50;;;;;;6209565;23;20410;-78
2021/10/29 01:15:27;;;;;;;2.80;2.50;;;22.40;54.40;;;;;;6235599;23;20377;-80
2021/10/29 01:17:53;;;;;;;3.03;2.53;;;22.40;54.40;;;;;;6209679;23;20413;-80
2021/10/29 01:20:20;;;;;;;3.23;2.30;;;22.40;54.40;;;;;;6208696;23;20374;-80
2021/10/29 01:22:47;;;;;;;3.20;2.50;;;22.40;54.40;;;;;;6209284;23;20410;-80
2021/10/29 01:25:13;;;;;;;2.57;2.17;;;22.40;54.40;;;;;;6209397;23;20454;-80
2021/10/29 01:27:40;;;;;;;2.40;2.20;;;22.40;54.40;;;;;;6209368;23;20394;-80
2021/10/29 01:30:09;;;;;;;2.63;2.30;;;22.40;54.40;;;;;;6236294;23;20371;-79
2021/10/29 01:32:39;;;;;;;3.07;2.20;;;22.40;54.50;;;;;;6186374;23;20457;-79
2021/10/29 01:35:07;;;;;;;2.43;2.23;;;22.40;54.50;;;;;;6210128;23;20382;-79
2021/10/29 01:37:39;;;;;;;3.00;2.00;;;22.40;54.50;;;;;;6211541;23;20426;-78
2021/10/29 01:40:07;;;;;;;3.93;2.70;;;22.40;54.50;;;;;;6211933;23;20374;-79
2021/10/29 01:42:34;;;;;;;2.90;2.40;;;22.40;54.50;;;;;;6209952;23;20381;-80
2021/10/29 01:45:05;;;;;;;2.60;2.40;;;22.40;54.50;;;;;;6210450;23;20412;-80
2021/10/29 01:47:47;;;;;;;3.00;2.70;;;22.40;54.50;;;;;;6211253;23;20402;-78
2021/10/29 01:53:37;;;;;;;4.27;2.73;;;22.40;54.50;;;;;;6242516;23;20438;-79
2021/10/29 01:59:35;;;;;;;3.70;2.23;;;22.30;54.50;;;;;;6242054;23;20386;-78
2021/10/29 02:02:03;;;;;;;3.60;2.30;;;22.30;54.60;;;;;;6242896;23;20374;-78
2021/10/29 02:04:41;;;;;;;2.70;2.13;;;22.30;54.60;;;;;;6242105;23;20382;-79
2021/10/29 02:07:14;;;;;;;3.60;2.77;;;22.30;54.60;;;;;;6215819;23;20390;-78
2021/10/29 02:09:44;;;;;;;2.30;1.90;;;22.30;54.60;;;;;;6214017;23;20419;-79
2021/10/29 02:12:32;;;;;;;3.20;2.40;;;22.30;54.60;;;;;;6191765;23;20383;-79
2021/10/29 02:15:27;;;;;;;3.10;2.00;;;22.30;54.60;;;;;;6218969;23;20373;-79
2021/10/29 02:18:20;;;;;;;2.77;2.10;;;22.30;54.60;;;;;;6215825;23;20393;-79
2021/10/29 02:21:06;;;;;;;2.67;1.90;;;22.30;54.60;;;;;;6193362;23;20368;-79
2021/10/29 02:23:39;;;;;;;3.40;2.43;;;22.30;54.60;;;;;;6215689;23;20386;-79
2021/10/29 02:26:25;;;;;;;2.90;2.60;;;22.30;54.60;;;;;;6236725;23;20390;-79
2021/10/29 02:29:04;;;;;;;2.33;2.03;;;22.30;54.60;;;;;;6215472;23;20366;-79
2021/10/29 02:31:40;;;;;;;2.97;2.10;;;22.30;54.60;;;;;;6215534;23;20366;-79
2021/10/29 02:34:14;;;;;;;3.00;1.90;;;22.30;54.60;;;;;;6191877;23;20386;-78
2021/10/29 02:36:46;;;;;;;3.00;2.00;;;22.30;54.60;;;;;;6216728;23;20429;-78
2021/10/29 02:39:30;;;;;;;2.97;1.87;;;22.30;54.50;;;;;;6211849;23;20397;-79
2021/10/29 02:42:29;;;;;;;2.50;2.03;;;22.30;54.50;;;;;;6218328;23;20358;-79
2021/10/29 02:45:04;;;;;;;2.70;2.50;;;22.30;54.60;;;;;;6209614;23;20788;-79
2021/10/29 02:47:33;;;;;;;3.20;2.30;;;22.30;55.10;;;;;;6182882;23;20375;-79
2021/10/29 02:50:16;;;;;;;3.30;2.47;;;22.30;54.60;;;;;;6158077;23;20380;-79
2021/10/29 02:52:56;;;;;;;2.33;2.07;;;22.30;54.60;;;;;;6156761;23;20367;-79
2021/10/29 02:55:22;;;;;;;2.60;1.80;;;22.30;54.60;;;;;;6157034;23;20367;-78
2021/10/29 02:57:56;;;;;;;2.43;2.03;;;22.30;54.60;;;;;;6182160;23;20438;-78
2021/10/29 03:04:06;;;;;;;4.33;2.57;;;22.30;54.60;;;;;;6181703;23;20412;-79
2021/10/29 03:06:32;;;;;;;4.40;2.70;;;22.30;54.60;;;;;;6130154;23;20395;-80
2021/10/29 03:09:00;;;;;;;2.60;2.00;;;22.30;54.60;;;;;;6173653;23;20383;-80
2021/10/29 03:11:26;;;;;;;2.47;2.10;;;22.30;54.60;;;;;;6148217;23;20390;-80
2021/10/29 03:13:54;;;;;;;2.60;2.10;;;22.30;54.60;;;;;;6148007;23;20467;-80
2021/10/29 03:16:20;;;;;;;2.00;1.70;;;22.30;54.60;;;;;;6148253;23;20422;-80
2021/10/29 03:18:46;;;;;;;3.10;2.17;;;22.30;54.60;;;;;;6173567;23;20383;-80
2021/10/29 03:21:12;;;;;;;2.50;2.13;;;22.30;54.50;;;;;;6123986;23;20447;-81
2021/10/29 03:23:38;;;;;;;2.60;1.97;;;22.30;54.60;;;;;;6173023;23;20383;-80
2021/10/29 03:26:04;;;;;;;2.93;2.60;;;22.30;54.50;;;;;;6173191;23;20434;-80
2021/10/29 03:28:30;;;;;;;3.13;2.13;;;22.30;54.50;;;;;;6173644;23;20168;-80
2021/10/29 03:30:57;;;;;;;1.77;1.63;;;22.30;54.50;;;;;;6149748;23;20398;-80
2021/10/29 03:33:23;;;;;;;2.70;2.10;;;22.30;54.50;;;;;;6150542;23;20859;-81
2021/10/29 03:35:48;;;;;;;2.80;1.80;;;22.30;54.50;;;;;;6149088;23;20421;-81
2021/10/29 03:41:03;;;;;;;2.40;2.20;;;22.30;54.50;;;;;;6154382;23;20143;-80
2021/10/29 03:43:44;;;;;;;2.13;1.93;;;22.30;54.50;;;;;;6187514;23;20375;-80
2021/10/29 03:46:16;;;;;;;3.27;1.90;;;22.30;54.50;;;;;;6237480;23;20355;-80
2021/10/29 03:48:54;;;;;;;2.47;2.00;;;22.30;54.50;;;;;;6209491;23;20390;-80
2021/10/29 03:51:35;;;;;;;2.77;1.77;;;22.30;54.50;;;;;;6208165;23;20385;-80
2021/10/29 03:54:09;;;;;;;2.53;1.90;;;22.30;54.50;;;;;;6208452;23;20401;-80
2021/10/29 03:59:19;;;;;;;2.90;2.10;;;22.20;54.50;;;;;;6234552;23;20435;-80
2021/10/29 04:01:46;;;;;;;2.60;2.20;;;22.30;54.60;;;;;;6209267;23;20362;-80
2021/10/29 04:04:12;;;;;;;2.00;1.70;;;22.30;54.60;;;;;;6208302;23;20155;-80
2021/10/29 04:06:38;;;;;;;2.30;2.10;;;22.30;54.60;;;;;;6235407;23;20378;-79
2021/10/29 04:09:07;;;;;;;2.23;1.70;;;22.30;54.60;;;;;;6208322;23;20478;-79
2021/10/29 04:11:39;;;;;;;3.47;2.17;;;22.20;54.50;;;;;;6235052;23;20369;-79
2021/10/29 04:14:11;;;;;;;2.20;1.97;;;22.30;54.60;;;;;;6208103;23;20378;-79
2021/10/29 04:16:38;;;;;;;3.07;2.00;;;22.20;54.50;;;;;;6207524;23;20421;-79
2021/10/29 04:19:09;;;;;;;3.10;2.00;;;22.20;54.50;;;;;;6235539;23;20381;-79
2021/10/29 04:21:36;;;;;;;2.10;1.60;;;22.20;54.50;;;;;;6208294;23;20848;-80
2021/10/29 04:24:04;;;;;;;3.10;2.40;;;22.20;54.50;;;;;;6208655;23;20362;-81
2021/10/29 04:26:31;;;;;;;2.07;1.73;;;22.20;54.50;;;;;;6208855;23;20413;-80
2021/10/29 04:32:38;;;;;;;2.10;1.70;;;22.30;54.60;;;;;;6087731;23;20421;-81
2021/10/29 04:35:13;;;;;;;2.30;2.00;;;22.20;54.60;;;;;;6234974;23;20714;-80
2021/10/29 04:37:41;;;;;;;2.50;2.20;;;22.20;54.60;;;;;;6210415;23;20186;-80
2021/10/29 04:40:19;;;;;;;2.40;1.70;;;22.20;54.60;;;;;;6211140;23;20378;-80
2021/10/29 04:42:51;;;;;;;2.30;1.87;;;22.20;54.50;;;;;;6184029;23;20378;-81
2021/10/29 04:45:20;;;;;;;2.00;1.60;;;22.20;54.50;;;;;;6236596;23;20380;-81
2021/10/29 04:47:47;;;;;;;2.10;1.90;;;22.30;54.60;;;;;;6209375;23;20383;-80
2021/10/29 04:50:15;;;;;;;1.87;1.40;;;22.30;54.60;;;;;;6207631;23;20383;-80
2021/10/29 04:52:48;;;;;;;2.20;2.00;;;22.30;54.50;;;;;;6207337;23;20382;-80
2021/10/29 04:55:17;;;;;;;2.10;1.70;;;22.30;54.50;;;;;;6203324;23;20817;-81
2021/10/29 04:57:50;;;;;;;2.77;2.10;;;22.30;54.50;;;;;;6207094;23;20426;-80
2021/10/29 05:00:24;;;;;;;2.13;1.60;;;22.30;54.50;;;;;;6182484;23;20405;-80
2021/10/29 05:02:58;;;;;;;1.80;1.67;;;22.30;54.40;;;;;;6208063;23;20416;-80
2021/10/29 05:05:26;;;;;;;2.17;1.80;;;22.30;54.40;;;;;;6208059;23;20378;-80
2021/10/29 05:08:00;;;;;;;2.20;1.77;;;22.30;54.40;;;;;;6208189;23;20378;-81
2021/10/29 05:10:43;;;;;;;3.20;1.90;;;22.40;54.40;;;;;;6206860;23;20414;-80
2021/10/29 05:13:18;;;;;;;2.37;2.03;;;22.40;54.40;;;;;;6235155;23;20749;-80
2021/10/29 05:15:46;;;;;;;2.13;1.87;;;22.40;54.40;;;;;;6209491;23;20374;-80
2021/10/29 05:18:16;;;;;;;2.43;1.60;;;22.40;54.40;;;;;;6232586;23;20385;-81
2021/10/29 05:20:45;;;;;;;3.07;2.10;;;22.40;54.40;;;;;;6208154;23;20405;-80
2021/10/29 05:23:18;;;;;;;1.70;1.47;;;22.40;54.40;;;;;;6207999;23;20405;-81
2021/10/29 05:25:45;;;;;;;1.90;1.50;;;22.40;54.40;;;;;;6208368;23;20433;-80
2021/10/29 05:28:15;;;;;;;2.23;1.70;;;22.40;54.40;;;;;;6208328;23;20382;-80
2021/10/29 05:30:45;;;;;;;2.67;1.80;;;22.40;54.30;;;;;;6184452;23;20386;-80
2021/10/29 05:33:13;;;;;;;2.60;1.90;;;22.40;54.40;;;;;;6208959;23;20454;-80
2021/10/29 05:35:49;;;;;;;2.27;1.60;;;22.40;54.30;;;;;;6235043;23;20378;-79
2021/10/29 05:38:22;;;;;;;2.03;1.67;;;22.40;54.30;;;;;;6209329;23;20398;-79
2021/10/29 05:40:54;;;;;;;1.60;1.43;;;22.40;54.30;;;;;;6182760;23;20382;-79
2021/10/29 05:43:27;;;;;;;2.50;2.03;;;22.40;54.30;;;;;;6236362;23;20376;-80
2021/10/29 05:46:01;;;;;;;2.40;1.83;;;22.40;54.30;;;;;;6184483;23;20394;-79
2021/10/29 05:48:37;;;;;;;2.50;1.90;;;22.40;54.30;;;;;;6207435;23;20370;-80
2021/10/29 05:51:13;;;;;;;2.73;1.70;;;22.40;54.30;;;;;;6207381;23;20374;-80
2021/10/29 05:56:20;;;;;;;2.20;1.93;;;22.40;54.30;;;;;;6207218;23;20416;-80
2021/10/29 05:58:50;;;;;;;2.80;1.87;;;22.40;54.80;;;;;;6206637;23;20379;-80
2021/10/29 06:01:27;;;;;;;;;;;;;;;;;;;;;
2021/10/29 06:03:56;;;;;;;2.10;1.80;;;22.40;54.30;;;;;;6223848;23;20389;-80
2021/10/29 06:06:25;;;;;;;2.00;1.70;;;22.40;54.30;;;;;;6207503;23;20390;-80
2021/10/29 06:15:32;;;;;;;2.00;1.70;;;22.40;54.30;;;;;;6113772;23;20382;-80
2021/10/29 06:17:59;;;;;;;1.97;1.50;;;22.40;54.30;;;;;;6088650;23;20394;-80
2021/10/29 06:20:30;;;;;;;1.63;1.53;;;22.40;54.30;;;;;;6089399;23;20370;-80
2021/10/29 06:23:03;;;;;;;2.40;1.70;;;22.40;54.30;;;;;;6089201;23;20393;-80
2021/10/29 06:25:39;;;;;;;2.07;1.57;;;22.40;54.30;;;;;;6088859;23;20374;-80
2021/10/29 06:30:55;;;;;;;2.10;1.60;;;22.40;54.30;;;;;;6115248;23;20381;-80
2021/10/29 06:33:23;;;;;;;2.00;1.77;;;22.40;54.40;;;;;;6089417;23;20389;-80
2021/10/29 06:35:53;;;;;;;1.93;1.67;;;22.40;54.30;;;;;;6090837;23;20413;-80
2021/10/29 06:38:46;;;;;;;;;;;;;;;;;;;;;
2021/10/29 06:41:17;;;;;;;1.80;1.40;;;22.50;54.30;;;;;;6111200;23;20418;-80
2021/10/29 06:43:50;;;;;;;2.10;1.90;;;22.40;54.30;;;;;;6209875;23;20382;-80
2021/10/29 06:46:34;;;;;;;2.00;1.60;;;22.40;54.30;;;;;;6209656;23;20375;-80
2021/10/29 07:11:41;;;;;;;2.30;1.83;;;22.50;54.30;;;;;;6143032;23;20361;-80
2021/10/29 07:40:16;;;;;;;1.70;1.40;;;22.50;54.40;;;;;;6236703;23;20688;-79
2021/10/29 07:43:01;;;;;;;1.83;1.60;;;22.40;54.30;;;;;;6187455;23;20382;-80
2021/10/29 07:45:35;;;;;;;1.47;1.30;;;22.50;54.40;;;;;;6189075;23;20397;-79
2021/10/29 07:48:02;;;;;;;1.53;1.30;;;22.50;54.30;;;;;;6236273;23;20664;-79
2021/10/29 07:50:49;;;;;;;2.00;1.60;;;22.50;54.30;;;;;;6208964;23;20379;-79
2021/10/29 07:54:08;;;;;;;2.10;1.37;;;22.50;54.30;;;;;;6211997;23;20405;-79
2021/10/29 07:56:42;;;;;;;2.13;1.47;;;22.50;54.30;;;;;;6208578;23;20421;-79
2021/10/29 07:59:08;;;;;;;2.07;1.80;;;22.50;54.30;;;;;;6185530;23;20456;-79
2021/10/29 08:01:40;;;;;;;2.57;1.23;;;22.50;54.30;;;;;;6209183;23;20382;-80
2021/10/29 08:04:15;;;;;;;1.53;1.43;;;22.50;54.30;;;;;;6210136;23;20378;-79
2021/10/29 08:12:59;;;;;;;1.90;1.50;;;22.50;54.30;;;;;;6235306;23;20365;-80
2021/10/29 08:15:26;;;;;;;1.40;1.30;;;22.50;54.30;;;;;;6209060;23;20385;-80
2021/10/29 08:17:59;;;;;;;1.73;1.57;;;22.50;54.30;;;;;;6208104;23;20425;-80
2021/10/29 08:20:36;;;;;;;1.67;1.50;;;22.50;54.30;;;;;;6208941;23;20382;-80
2021/10/29 08:23:13;;;;;;;1.43;1.30;;;22.50;54.30;;;;;;6209552;23;20367;-80
2021/10/29 08:25:40;;;;;;;1.57;1.20;;;22.50;54.30;;;;;;6209947;23;20378;-80
2021/10/29 08:34:01;;;;;;;1.70;1.40;;;22.50;54.30;;;;;;6209975;22;20449;-80
2021/10/29 08:36:28;;;;;;;1.93;1.40;;;22.50;54.30;;;;;;6206587;23;20522;-79
2021/10/29 08:38:54;;;;;;;1.43;1.13;;;22.50;54.30;;;;;;6208944;23;20372;-79
2021/10/29 08:41:24;;;;;;;1.50;1.20;;;22.50;54.30;;;;;;6209223;23;20375;-78
2021/10/29 08:43:50;;;;;;;1.63;1.30;;;22.50;54.20;;;;;;6183040;23;20451;-80
2021/10/29 08:46:22;;;;;;;1.40;1.30;;;22.50;54.20;;;;;;6206996;23;20391;-79
2021/10/29 08:48:52;;;;;;;1.90;1.50;;;22.50;54.20;;;;;;6210100;23;20143;-79
2021/10/29 08:51:31;;;;;;;1.57;1.47;;;22.50;54.20;;;;;;6208582;23;20379;-79
2021/10/29 08:53:57;;;;;;;1.90;1.37;;;22.50;54.20;;;;;;6182465;23;20394;-80
2021/10/29 08:56:32;;;;;;;1.80;1.43;;;22.50;54.20;;;;;;6207959;23;20422;-80
2021/10/29 08:59:18;;;;;;;1.50;1.40;;;22.50;54.20;;;;;;6207583;23;20374;-80
2021/10/29 09:04:51;;;;;;;1.60;1.20;;;22.50;54.20;;;;;;6217519;23;20386;-79
2021/10/29 09:10:17;;;;;;;1.90;1.17;;;22.50;54.30;;;;;;6206376;23;20359;-80
2021/10/29 09:32:33;;;;;;;1.60;1.40;;;22.50;54.30;;;;;;6206281;23;20398;-80
2021/10/29 09:35:05;;;;;;;1.50;1.37;;;22.50;54.20;;;;;;6203353;23;20409;-80
2021/10/29 09:37:36;;;;;;;1.40;1.20;;;22.50;54.20;;;;;;6204297;23;20452;-79
2021/10/29 09:40:13;;;;;;;1.97;1.30;;;22.50;54.20;;;;;;6203582;23;20375;-80
2021/10/29 09:42:41;;;;;;;1.70;1.60;;;22.60;54.20;;;;;;6205342;23;20491;-80
2021/10/29 09:45:23;;;;;;;1.27;1.10;;;22.50;54.20;;;;;;6203640;23;20405;-79
2021/10/29 09:47:56;;;;;;;2.07;1.50;;;22.60;54.20;;;;;;6203470;23;20889;-79
2021/10/29 09:50:36;;;;;;;2.33;1.80;;;22.60;54.20;;;;;;6179363;23;20379;-79
2021/10/29 09:55:51;;;;;;;1.90;1.30;;;22.60;54.20;;;;;;6203756;23;20371;-79
2021/10/29 09:58:20;;;;;;;1.70;1.37;;;22.60;54.20;;;;;;6203085;23;20406;-79
2021/10/29 10:00:49;;;;;;;1.83;1.43;;;22.60;54.20;;;;;;6203461;23;20398;-79
2021/10/29 10:03:22;;;;;;;1.73;1.33;;;22.60;54.20;;;;;;6203011;23;20379;-80
2021/10/29 10:05:52;;;;;;;1.20;1.03;;;22.70;54.20;;;;;;6204371;23;20369;-80
2021/10/29 10:08:26;;;;;;;2.03;1.50;;;22.70;54.20;;;;;;6204484;23;20402;-80
2021/10/29 10:10:59;;;;;;;2.07;1.30;;;22.70;54.20;;;;;;6202928;23;20445;-80
2021/10/29 10:14:13;;;;;;;1.57;1.40;;;22.70;54.20;;;;;;6179649;23;20714;-81
2021/10/29 10:16:39;;;;;;;1.63;1.20;;;22.70;54.20;;;;;;6205691;23;20501;-80
2021/10/29 10:19:07;;;;;;;1.57;1.30;;;22.70;54.20;;;;;;6204874;23;20398;-80
2021/10/29 10:21:44;;;;;;;1.30;1.13;;;22.70;54.30;;;;;;6204878;23;20383;-80
2021/10/29 10:24:21;;;;;;;2.00;1.47;;;22.70;54.30;;;;;;6205422;23;20371;-81
2021/10/29 10:27:22;;;;;;;1.40;1.13;;;22.70;54.20;;;;;;6204464;23;20402;-80
2021/10/29 10:42:09;;;;;;;2.20;1.20;;;22.80;54.40;;;;;;6204360;23;20354;-79
2021/10/29 10:47:10;;;;;;;1.20;1.10;;;22.80;54.40;;;;;;6204686;23;20410;-79
2021/10/29 10:49:52;;;;;;;1.40;1.10;;;22.70;54.30;;;;;;6202854;23;20414;-80
2021/10/29 10:52:24;;;;;;;1.50;1.23;;;22.80;54.40;;;;;;6178607;23;20434;-79
2021/10/29 10:55:06;;;;;;;1.63;1.33;;;22.80;54.40;;;;;;6205213;23;20439;-79
2021/10/29 10:57:49;;;;;;;1.70;1.33;;;22.80;54.40;;;;;;6204894;23;20402;-79
2021/10/29 11:06:13;;;;;;;1.50;1.20;;;22.90;54.40;;;;;;6156205;23;20378;-80
2021/10/29 11:12:26;;;;;;;1.57;1.23;;;22.80;54.30;;;;;;6206802;23;20355;-79
2021/10/29 11:15:12;;;;;;;1.70;1.27;;;22.90;54.40;;;;;;6205979;23;20695;-80
2021/10/29 11:17:44;;;;;;;1.67;1.30;;;22.90;54.40;;;;;;6206091;23;20418;-79
2021/10/29 11:20:53;;;;;;;2.07;1.40;;;22.90;54.50;;;;;;6187157;23;20367;-79
2021/10/29 11:23:32;;;;;;;2.00;1.20;;;22.90;54.40;;;;;;6212490;23;20375;-79
2021/10/29 11:26:06;;;;;;;1.50;1.10;;;22.90;54.40;;;;;;6213649;23;20402;-78
2021/10/29 11:29:02;;;;;;;1.40;1.20;;;22.90;54.40;;;;;;6213332;23;20383;-79
2021/10/29 11:31:51;;;;;;;2.50;1.47;;;22.90;54.40;;;;;;6213917;23;20369;-80
2021/10/29 11:34:18;;;;;;;2.30;1.50;;;22.90;54.40;;;;;;6187861;23;20410;-80
2021/10/29 11:37:00;;;;;;;1.73;1.00;;;22.80;54.30;;;;;;6212455;23;20452;-80
2021/10/29 11:39:35;;;;;;;1.97;1.60;;;22.80;54.40;;;;;;6209397;23;20374;-81
2021/10/29 11:42:07;;;;;;;1.77;1.40;;;22.80;54.30;;;;;;6184706;23;20441;-79
2021/10/29 11:51:19;;;;;;;13.57;4.93;;;22.80;54.30;;;;;;6213920;23;20395;-80
2021/10/29 12:12:44;;;;;;;95.87;61.87;;;22.70;54.40;;;;;;6153005;23;20416;-80
2021/10/29 12:15:32;;;;;;;100.07;65.67;;;22.70;54.30;;;;;;6127279;23;20401;-81
2021/10/29 12:18:19;;;;;;;90.07;61.57;;;22.70;54.20;;;;;;6128491;23;20777;-79
2021/10/29 12:20:51;;;;;;;78.07;54.77;;;22.70;54.20;;;;;;6128123;23;20364;-81
2021/10/29 12:24:00;;;;;;;93.57;64.17;;;22.70;54.20;;;;;;6153398;23;20376;-79
2021/10/29 12:26:29;;;;;;;87.57;59.00;;;22.60;54.20;;;;;;6128787;23;20369;-78
2021/10/29 12:29:01;;;;;;;97.27;63.07;;;22.60;54.20;;;;;;6153643;23;20436;-79
2021/10/29 12:37:56;;;;;;;102.43;73.40;;;22.60;54.20;;;;;;6192581;23;20407;-79
2021/10/29 13:01:42;;;;;;;62.60;45.80;;;22.60;54.10;;;;;;6212285;23;20414;-78
2021/10/29 13:04:24;;;;;;;82.47;58.30;;;22.60;54.20;;;;;;6212511;23;20394;-80
2021/10/29 13:06:55;;;;;;;87.40;56.83;;;22.50;54.10;;;;;;6211453;23;20348;-80
2021/10/29 13:09:31;;;;;;;83.33;57.77;;;22.60;54.20;;;;;;6187094;23;20426;-80
2021/10/29 13:12:07;;;;;;;88.37;58.93;;;22.60;54.20;;;;;;6187332;23;20347;-80
2021/10/29 13:14:38;;;;;;;76.40;56.33;;;22.60;54.20;;;;;;6187022;23;20355;-80
2021/10/29 13:17:14;;;;;;;79.47;57.33;;;22.50;54.10;;;;;;6208803;23;20445;-79
2021/10/29 13:19:54;;;;;;;86.73;58.20;;;22.60;54.20;;;;;;6186107;23;20402;-79
2021/10/29 13:35:49;;;;;;;75.00;53.10;;;22.50;54.20;;;;;;6210621;23;20402;-80
2021/10/29 13:55:52;;;;;;;43.80;35.60;;;22.40;53.50;;;;;;6187191;23;20376;-81
2021/10/29 14:28:42;;;;;;;33.53;24.37;;;22.40;53.70;;;;;;6104836;23;20433;-80
2021/10/29 14:31:14;;;;;;;33.30;23.70;;;22.40;53.70;;;;;;6119826;23;20437;-80
2021/10/29 14:33:46;;;;;;;31.30;24.30;;;22.40;53.60;;;;;;6144338;23;20370;-80
2021/10/29 14:36:23;;;;;;;29.30;22.50;;;22.40;53.60;;;;;;6208573;23;20935;-80
2021/10/29 14:39:05;;;;;;;25.97;20.30;;;22.50;53.60;;;;;;6209201;23;20368;-78
2021/10/29 14:41:39;;;;;;;28.97;21.70;;;22.50;53.70;;;;;;6207470;23;20390;-77
2021/10/29 14:44:13;;;;;;;30.47;22.83;;;22.50;53.70;;;;;;6208262;23;20415;-77
2021/10/29 14:49:25;;;;;;;29.53;24.20;;;22.50;53.70;;;;;;6209055;23;20399;-77
2021/10/29 14:52:09;;;;;;;32.07;23.10;;;22.50;53.60;;;;;;6209766;23;20419;-78
2021/10/29 15:29:57;;;;;;;27.57;21.23;;;22.50;53.80;;;;;;6181183;23;20455;-78
2021/10/29 15:32:55;;;;;;;23.40;19.23;;;22.50;53.80;;;;;;6208092;23;20375;-78
2021/10/29 15:46:04;;;;;;;25.13;18.57;;;22.50;53.80;;;;;;6208717;23;20857;-78
2021/10/29 15:48:39;;;;;;;26.10;20.73;;;22.50;53.80;;;;;;6180380;23;20443;-80
2021/10/29 15:51:05;;;;;;;26.90;20.83;;;22.50;53.80;;;;;;6205852;23;20359;-80
2021/10/29 15:53:31;;;;;;;22.10;18.10;;;22.50;53.80;;;;;;6205925;23;20433;-80
2021/10/29 15:56:08;;;;;;;27.23;19.80;;;22.60;53.90;;;;;;6204633;23;20148;-80
2021/10/29 16:01:13;;;;;;;23.53;18.50;;;22.60;53.90;;;;;;6206411;23;20725;-79
2021/10/29 16:17:27;;;;;;;22.67;17.57;;;22.60;54.00;;;;;;6184252;23;20473;-79
2021/10/29 16:19:53;;;;;;;20.40;18.30;;;22.60;54.00;;;;;;6206693;23;20411;-79
2021/10/29 16:22:32;;;;;;;21.13;17.70;;;22.60;54.00;;;;;;6206899;23;20453;-79
2021/10/29 16:25:06;;;;;;;19.30;16.13;;;22.60;54.00;;;;;;6181650;23;20364;-80
2021/10/29 16:28:15;;;;;;;23.53;18.97;;;22.60;53.90;;;;;;6206869;23;20399;-79
2021/10/29 16:30:26;;;;;;;21.27;18.03;;;22.60;53.90;;;;;;6204780;23;20458;-79
2021/10/29 16:35:25;;;;;;;21.90;17.00;;;22.60;53.90;;;;;;6209172;23;20405;-79
2021/10/29 16:37:51;;;;;;;23.90;16.37;;;22.60;53.90;;;;;;6207616;23;20470;-79
2021/10/29 16:40:20;;;;;;;19.83;14.37;;;22.60;53.90;;;;;;6206507;23;20402;-79
2021/10/29 16:42:46;;;;;;;19.20;16.17;;;22.60;53.90;;;;;;6206260;23;20383;-79
2021/10/29 16:45:15;;;;;;;18.30;15.67;;;22.60;53.90;;;;;;6206528;23;20439;-78
2021/10/29 16:47:43;;;;;;;23.07;18.67;;;22.60;53.90;;;;;;6206790;23;20367;-79
2021/10/29 16:50:20;;;;;;;17.60;14.93;;;22.60;53.90;;;;;;6181259;23;20447;-79
2021/10/29 16:52:46;;;;;;;20.03;16.13;;;22.60;53.90;;;;;;6207208;23;20442;-79
2021/10/29 16:55:12;;;;;;;21.70;17.97;;;22.60;53.90;;;;;;6207448;23;20371;-79
2021/10/29 16:57:39;;;;;;;19.83;16.40;;;22.60;53.90;;;;;;6206552;23;20406;-79
2021/10/29 17:00:08;;;;;;;20.33;16.40;;;22.60;53.90;;;;;;6205819;23;20371;-79
2021/10/29 17:02:43;;;;;;;21.50;17.00;;;22.60;53.90;;;;;;6205998;23;20389;-79
2021/10/29 17:05:11;;;;;;;17.53;15.63;;;22.60;53.90;;;;;;6206063;23;20370;-79
2021/10/29 17:07:37;;;;;;;21.40;14.77;;;22.60;53.90;;;;;;6208060;23;20375;-78
2021/10/29 17:10:10;;;;;;;19.13;17.10;;;22.60;53.90;;;;;;6205964;23;20387;-78
2021/10/29 17:12:42;;;;;;;22.73;16.80;;;22.60;54.50;;;;;;6208146;23;20352;-78
2021/10/29 17:15:17;;;;;;;18.27;14.60;;;22.60;53.90;;;;;;6181907;23;20379;-79
2021/10/29 17:17:45;;;;;;;19.00;15.90;;;22.60;53.90;;;;;;6205790;23;20990;-77
2021/10/29 17:20:14;;;;;;;19.40;16.70;;;22.60;53.90;;;;;;6206860;23;20406;-77
2021/10/29 17:22:40;;;;;;;18.90;16.10;;;22.60;53.90;;;;;;6205880;23;20379;-78
2021/10/29 17:25:13;;;;;;;17.83;14.70;;;22.60;54.50;;;;;;6207673;23;20683;-79
2021/10/29 17:27:42;;;;;;;17.40;15.50;;;22.60;54.50;;;;;;6206914;23;20379;-78
2021/10/29 17:30:27;;;;;;;17.30;14.00;;;22.60;53.90;;;;;;6207910;23;20391;-80
2021/10/29 17:32:58;;;;;;;16.73;14.20;;;22.60;53.90;;;;;;6210242;23;20381;-80
2021/10/29 17:35:24;;;;;;;19.10;15.27;;;22.60;54.00;;;;;;6209528;23;20486;-80
2021/10/29 17:37:50;;;;;;;17.07;14.30;;;22.60;54.10;;;;;;6209519;23;20410;-80
2021/10/29 17:40:22;;;;;;;18.13;15.10;;;22.60;54.00;;;;;;6208491;23;20470;-81
2021/10/29 17:42:54;;;;;;;16.80;14.90;;;22.70;54.60;;;;;;6209040;23;20383;-80
2021/10/29 17:45:25;;;;;;;18.80;14.70;;;22.70;54.10;;;;;;6210698;23;20351;-80
2021/10/29 17:47:55;;;;;;;20.60;15.10;;;22.70;54.10;;;;;;6210644;23;20375;-80
2021/10/29 17:50:34;;;;;;;15.60;14.00;;;22.70;54.00;;;;;;6209833;23;20360;-80
2021/10/29 17:53:07;;;;;;;17.33;14.37;;;22.70;54.00;;;;;;6209907;23;20363;-80
2021/10/29 17:59:35;;;;;;;16.47;14.77;;;22.70;54.00;;;;;;6179858;23;20475;-80
2021/10/29 18:02:23;;;;;;;16.27;14.53;;;22.70;54.00;;;;;;6179398;23;20367;-81
2021/10/29 18:22:01;;;;;;;15.93;13.00;;;22.70;54.20;;;;;;5948655;24;20388;-81
2021/10/29 18:24:59;;;;;;;15.87;12.83;;;22.70;54.20;;;;;;5926331;24;20428;-81
2021/10/29 18:27:48;;;;;;;15.03;12.23;;;22.70;54.20;;;;;;5949625;24;20360;-81
2021/10/29 18:30:24;;;;;;;15.00;12.47;;;22.70;54.20;;;;;;5970492;24;20397;-79
2021/10/29 18:33:03;;;;;;;17.13;14.10;;;22.80;54.20;;;;;;5982007;24;20416;-79
2021/10/29 18:35:45;;;;;;;15.70;14.10;;;22.70;54.10;;;;;;5981875;24;20385;-79
2021/10/29 18:38:12;;;;;;;14.47;13.07;;;22.70;54.10;;;;;;5982110;24;20829;-80
2021/10/29 18:40:40;;;;;;;15.30;12.97;;;22.70;54.10;;;;;;5982141;24;20444;-80
2021/10/29 18:43:08;;;;;;;16.20;13.33;;;22.80;54.20;;;;;;5982065;24;20390;-80
2021/10/29 18:45:40;;;;;;;16.90;13.13;;;22.80;54.10;;;;;;5966831;24;20406;-80
2021/10/29 18:48:07;;;;;;;17.67;14.37;;;22.80;54.10;;;;;;6072434;23;20417;-80
2021/10/29 18:50:38;;;;;;;15.90;14.27;;;22.80;54.10;;;;;;6118682;23;20452;-80
2021/10/29 18:53:17;;;;;;;14.60;12.63;;;22.80;54.10;;;;;;6120488;23;20410;-80
2021/10/29 18:55:45;;;;;;;13.30;11.90;;;22.80;54.10;;;;;;6206321;23;20832;-80
2021/10/29 18:58:18;;;;;;;14.77;13.27;;;22.80;54.10;;;;;;6208578;23;20805;-81
2021/10/29 19:00:48;;;;;;;14.20;12.70;;;22.80;54.10;;;;;;6209234;23;20379;-82